Time;durP1;ratioP1;P1;durP2;ratioP2;P2;SDS_P1;SDS_P2;PMS_P1;PMS_P2;Temp;Humidity;BMP_temperature;BMP_pressure;BME280_temperature;BME280_humidity;BME280_pressure;Samples;Min_cycle;Max_cycle;Signal;HPM_P1;HPM_P2
2023/02/21 02:14:17;;;;;;;4.50;4.10;;;;;;;6.08;100.00;98321.69;436694;1249;206644;-66
2023/02/21 02:25:00;;;;;;;4.40;4.00;;;;;;;6.06;100.00;98321.30;435071;1251;142885;-66
2023/02/21 02:35:13;;;;;;;6.30;5.50;;;;;;;6.08;100.00;98307.62;434080;1252;197946;-66
2023/02/21 02:45:26;;;;;;;5.30;4.80;;;;;;;6.09;100.00;98315.72;438377;1251;141875;-65
2023/02/21 02:55:39;;;;;;;4.30;3.90;;;;;;;6.15;100.00;98326.42;435067;1251;141266;-66
2023/02/21 03:05:56;;;;;;;4.50;4.10;;;;;;;6.14;100.00;98329.64;436127;1251;146599;-65
2023/02/21 03:16:10;;;;;;;4.00;3.70;;;;;;;6.10;100.00;98329.37;437136;1251;144866;-66
2023/02/21 03:26:17;;;;;;;4.80;4.40;;;;;;;6.07;100.00;98329.27;434320;1253;141173;-65
2023/02/21 03:36:23;;;;;;;3.50;3.20;;;;;;;6.10;100.00;98334.59;438463;1249;142364;-65
2023/02/21 03:46:29;;;;;;;3.00;2.70;;;;;;;6.11;100.00;98335.91;444435;1250;141406;-66
2023/02/21 03:56:34;;;;;;;4.30;3.90;;;;;;;6.14;100.00;98328.92;438788;1249;142343;-65
2023/02/21 04:06:46;;;;;;;3.90;3.60;;;;;;;6.17;100.00;98314.89;437078;1249;142203;-65
2023/02/21 04:16:52;;;;;;;4.50;4.10;;;;;;;6.14;100.00;98307.39;437849;1249;143365;-65
2023/02/21 04:26:58;;;;;;;4.00;3.70;;;;;;;6.13;100.00;98320.15;437534;1249;141878;-65
2023/02/21 04:37:03;;;;;;;2.90;2.70;;;;;;;6.10;100.00;98313.55;435935;1249;141843;-65
2023/02/21 04:47:09;;;;;;;3.20;3.00;;;;;;;6.16;100.00;98295.61;435740;1252;141122;-65
2023/02/21 04:57:15;;;;;;;3.20;2.90;;;;;;;6.23;100.00;98306.98;437906;1249;141555;-64
2023/02/21 05:07:21;;;;;;;1.60;1.50;;;;;;;6.27;100.00;98328.45;436706;1249;141740;-66
2023/02/21 05:17:27;;;;;;;1.70;1.60;;;;;;;6.18;100.00;98329.92;438778;1249;141787;-65
2023/02/21 05:27:33;;;;;;;1.60;1.40;;;;;;;6.08;100.00;98331.81;439114;1249;145185;-66
2023/02/21 05:37:39;;;;;;;1.70;0.80;;;;;;;6.07;100.00;98349.58;434666;1252;209003;-66
2023/02/21 05:47:44;;;;;;;5.90;1.70;;;;;;;6.10;100.00;98354.09;435124;1249;141236;-65
2023/02/21 05:57:50;;;;;;;1.30;0.20;;;;;;;6.05;100.00;98369.81;434162;1252;143017;-65
2023/02/21 06:07:56;;;;;;;1.30;0.40;;;;;;;5.98;99.87;98381.70;434064;1252;141305;-65
2023/02/21 06:18:02;;;;;;;2.60;0.60;;;;;;;5.97;98.39;98397.78;445198;1249;141044;-65
2023/02/21 06:28:08;;;;;;;4.40;1.30;;;;;;;6.06;97.90;98407.80;450438;1248;142457;-65
2023/02/21 06:38:14;;;;;;;3.10;0.50;;;;;;;6.08;96.55;98441.92;438080;1250;142181;-65
2023/02/21 06:48:20;;;;;;;1.30;0.80;;;;;;;6.12;94.95;98467.72;451129;1249;141909;-66
2023/02/21 06:58:25;;;;;;;1.70;0.50;;;;;;;6.57;93.81;98478.27;449755;1249;143698;-65
2023/02/21 07:08:31;;;;;;;2.60;0.90;;;;;;;8.07;91.56;98486.52;437983;1250;142489;-65
2023/02/21 07:18:37;;;;;;;1.20;0.80;;;;;;;9.42;86.69;98509.26;450594;1249;142410;-66
2023/02/21 07:28:44;;;;;;;3.70;1.50;;;;;;;9.09;81.31;98518.46;439283;1249;210746;-66
2023/02/21 07:38:50;;;;;;;3.30;1.40;;;;;;;11.61;74.78;98532.48;436876;1249;141796;-66
2023/02/21 07:48:56;;;;;;;4.30;1.90;;;;;;;12.43;69.74;98528.09;438585;1249;142926;-66
2023/02/21 07:59:02;;;;;;;3.10;1.10;;;;;;;12.85;69.65;98529.85;450872;1249;141845;-68
2023/02/21 08:09:08;;;;;;;6.20;1.70;;;;;;;17.30;63.81;98529.80;448241;1249;142671;-66
2023/02/21 08:19:14;;;;;;;4.30;1.30;;;;;;;17.15;54.02;98534.20;449906;1249;141935;-66
2023/02/21 08:29:19;;;;;;;3.80;1.20;;;;;;;18.85;53.63;98565.52;450438;1249;142929;-64
2023/02/21 08:39:28;;;;;;;3.20;1.30;;;;;;;20.41;48.32;98565.84;440398;1249;142637;-65
2023/02/21 08:49:38;;;;;;;4.30;2.20;;;;;;;15.51;46.52;98584.01;449795;1249;141019;-65
2023/02/21 08:59:44;;;;;;;2.30;1.20;;;;;;;11.27;51.83;98605.16;450524;1249;140812;-66
2023/02/21 09:09:50;;;;;;;4.20;1.30;;;;;;;9.32;55.68;98618.22;450379;1249;141852;-66
2023/02/21 09:19:56;;;;;;;3.90;1.40;;;;;;;8.49;56.98;98630.64;451178;1249;140854;-65
2023/02/21 09:30:02;;;;;;;3.60;1.50;;;;;;;8.60;57.08;98640.19;444438;1249;141387;-64
2023/02/21 09:40:17;;;;;;;4.20;1.20;;;;;;;8.01;58.83;98650.80;450365;1248;142963;-65
2023/02/21 09:50:29;;;;;;;3.40;1.50;;;;;;;7.82;59.71;98658.88;451110;1249;142254;-65
2023/02/21 10:00:37;;;;;;;5.90;1.40;;;;;;;7.92;61.24;98674.45;451115;1249;141011;-65
2023/02/21 10:10:48;;;;;;;3.00;1.50;;;;;;;8.23;61.72;98685.59;446627;1249;193337;-65
2023/02/21 10:20:58;;;;;;;3.80;1.70;;;;;;;8.03;61.07;98698.60;451310;1249;141134;-65
2023/02/21 10:31:07;;;;;;;4.10;1.30;;;;;;;7.87;61.23;98705.30;445964;1248;141935;-65
2023/02/21 10:41:13;;;;;;;3.70;1.90;;;;;;;8.02;61.43;98713.89;451300;1249;141710;-66
2023/02/21 10:51:31;;;;;;;4.80;1.40;;;;;;;8.15;60.75;98706.22;450404;1248;140730;-66
2023/02/21 11:01:42;;;;;;;;;;;;;;;8.12;61.31;98719.11;450552;1249;193481;-66
2023/02/21 11:11:48;;;;;;;3.60;1.30;;;;;;;8.05;61.30;98728.68;446321;1248;128000;-66
2023/02/21 11:21:59;;;;;;;5.80;1.20;;;;;;;7.93;61.19;98739.89;448866;1249;143409;-65
2023/02/21 11:32:15;;;;;;;7.20;2.70;;;;;;;7.69;61.23;98746.02;450988;1248;140704;-67
2023/02/21 11:42:29;;;;;;;8.80;2.50;;;;;;;7.57;62.17;98751.13;450622;1248;141207;-66
2023/02/21 11:52:40;;;;;;;7.90;2.50;;;;;;;7.54;63.02;98762.84;450235;1249;141624;-66
2023/02/21 12:02:56;;;;;;;11.80;2.40;;;;;;;7.40;63.99;98774.86;451146;1249;141053;-65
2023/02/21 12:13:14;;;;;;;11.40;3.10;;;;;;;7.22;64.23;98785.55;450302;1249;161078;-65
2023/02/21 12:23:23;;;;;;;;;;;;;;;7.22;64.30;98795.83;450573;1249;141587;-65
2023/02/21 12:33:42;;;;;;;3.30;1.90;;;;;;;7.45;63.93;98799.83;434419;1250;129007;-65
2023/02/21 12:43:59;;;;;;;11.70;2.40;;;;;;;7.63;63.39;98795.71;450181;1249;142166;-65
2023/02/21 12:54:10;;;;;;;6.60;1.90;;;;;;;7.60;63.32;98800.08;450953;1250;141152;-64
2023/02/21 13:04:28;;;;;;;8.20;3.10;;;;;;;7.58;63.52;98794.30;447934;1249;141377;-66
2023/02/21 13:14:40;;;;;;;10.00;3.70;;;;;;;7.48;63.67;98805.04;445490;1252;140505;-64
2023/02/21 13:24:59;;;;;;;6.90;2.40;;;;;;;7.40;63.62;98814.02;450193;1250;143579;-65
2023/02/21 13:35:09;;;;;;;6.80;2.40;;;;;;;7.32;63.80;98823.77;450783;1249;198890;-65
2023/02/21 13:45:22;;;;;;;7.90;2.70;;;;;;;7.11;63.97;98827.84;450795;1249;141547;-64
2023/02/21 13:55:31;;;;;;;8.50;2.80;;;;;;;6.97;64.36;98848.70;445022;1252;140816;-64
2023/02/21 14:06:31;;;;;;;5.90;2.50;;;;;;;6.84;64.60;98854.89;445509;1249;141452;-64
2023/02/21 14:16:48;;;;;;;8.60;2.80;;;;;;;6.71;65.07;98860.00;450011;1249;141283;-64
2023/02/21 14:26:55;;;;;;;;;;;;;;;6.61;65.41;98866.47;450967;1249;140980;-65
2023/02/21 14:37:04;;;;;;;8.60;2.50;;;;;;;6.65;65.85;98875.11;450480;1249;128204;-65
2023/02/21 14:47:26;;;;;;;5.60;3.10;;;;;;;6.66;65.88;98878.58;450954;1249;143097;-66
2023/02/21 14:57:54;;;;;;;7.50;2.40;;;;;;;6.59;66.33;98889.92;450941;1249;143623;-66
2023/02/21 15:08:06;;;;;;;7.90;2.20;;;;;;;6.49;66.63;98897.98;450317;1249;209657;-65
2023/02/21 15:18:25;;;;;;;7.30;2.50;;;;;;;6.43;66.90;98913.77;450728;1250;168155;-64
2023/02/21 15:28:33;;;;;;;8.40;3.10;;;;;;;6.29;66.95;98925.69;449426;1251;142806;-65
2023/02/21 15:38:43;;;;;;;11.70;3.40;;;;;;;6.19;67.06;98934.25;450338;1249;143372;-65
2023/02/21 15:48:50;;;;;;;10.80;3.60;;;;;;;6.09;67.63;98940.71;449826;1249;144423;-65
2023/02/21 15:59:17;;;;;;;13.90;3.20;;;;;;;5.97;68.04;98947.98;450561;1252;143720;-65
2023/02/21 16:09:28;;;;;;;10.10;3.10;;;;;;;5.89;68.49;98963.51;450906;1249;196226;-65
2023/02/21 16:19:35;;;;;;;18.00;3.70;;;;;;;5.82;68.75;98972.91;450110;1250;141371;-65
2023/02/21 16:29:41;;;;;;;8.20;2.70;;;;;;;5.76;69.04;98985.41;450697;1252;142491;-66
2023/02/21 16:39:47;;;;;;;7.70;2.80;;;;;;;5.71;69.57;98999.90;439949;1250;142407;-64
2023/02/21 16:49:53;;;;;;;9.80;3.90;;;;;;;5.67;70.03;99012.61;450228;1252;143135;-63
2023/02/21 16:59:58;;;;;;;13.90;4.00;;;;;;;5.59;70.31;99029.55;447692;1250;142291;-65
2023/02/21 17:10:05;;;;;;;16.90;4.30;;;;;;;5.53;70.66;99045.48;449789;1251;142331;-65
2023/02/21 17:20:17;;;;;;;9.90;3.40;;;;;;;5.49;70.91;99053.30;439532;1253;142511;-65
2023/02/21 17:30:25;;;;;;;10.20;3.60;;;;;;;5.43;71.09;99070.46;450407;1251;141199;-64
2023/02/21 17:40:32;;;;;;;8.50;3.90;;;;;;;5.36;71.43;99079.84;447893;1253;140765;-66
2023/02/21 17:50:37;;;;;;;8.00;3.50;;;;;;;5.31;71.60;99090.81;434371;1253;141519;-66
2023/02/21 18:00:44;;;;;;;7.20;2.80;;;;;;;5.24;71.83;99099.70;445593;1251;142159;-65
2023/02/21 18:10:49;;;;;;;7.10;3.00;;;;;;;5.17;71.75;99096.73;450730;1250;142043;-65
2023/02/21 18:20:56;;;;;;;7.80;3.00;;;;;;;5.15;71.67;99100.27;441888;1251;141947;-64
2023/02/21 18:31:01;;;;;;;13.10;4.10;;;;;;;5.13;72.13;99109.40;439179;1251;142369;-66
2023/02/21 18:41:11;;;;;;;12.10;3.80;;;;;;;5.10;72.65;99120.67;450432;1249;142746;-66
2023/02/21 18:51:19;;;;;;;28.20;4.40;;;;;;;5.10;73.03;99133.18;450651;1251;142241;-65
2023/02/21 19:01:25;;;;;;;12.00;4.40;;;;;;;5.09;73.31;99140.86;442883;1253;141409;-64
2023/02/21 19:11:31;;;;;;;9.20;4.60;;;;;;;5.07;73.41;99148.38;444917;1251;144775;-65
2023/02/21 19:21:37;;;;;;;12.10;4.20;;;;;;;5.04;73.51;99154.45;443869;1251;142702;-67
2023/02/21 19:31:43;;;;;;;16.00;4.10;;;;;;;5.03;73.73;99163.84;439780;1251;141535;-66
2023/02/21 19:41:49;;;;;;;5.60;2.60;;;;;;;5.00;73.64;99170.41;446319;1250;142120;-67
2023/02/21 19:51:58;;;;;;;10.00;3.70;;;;;;;4.98;73.42;99180.75;433014;1250;143238;-68
2023/02/21 20:02:04;;;;;;;12.80;4.50;;;;;;;4.94;73.14;99188.23;450752;1249;143813;-66
2023/02/21 20:12:10;;;;;;;8.40;3.70;;;;;;;4.92;73.19;99197.17;443560;1251;142724;-67
2023/02/21 20:22:15;;;;;;;18.40;3.60;;;;;;;4.92;72.96;99205.48;450387;1250;142717;-67
2023/02/21 20:32:21;;;;;;;8.90;3.90;;;;;;;4.90;72.97;99214.77;450863;1249;143037;-68
2023/02/21 20:42:28;;;;;;;11.30;3.50;;;;;;;4.86;73.28;99218.08;451130;1250;144998;-68
2023/02/21 20:52:34;;;;;;;12.40;4.00;;;;;;;4.81;73.31;99214.70;445654;1249;140858;-67
2023/02/21 21:02:40;;;;;;;10.20;3.50;;;;;;;4.77;73.55;99221.98;451171;1248;141831;-68
2023/02/21 21:12:48;;;;;;;9.60;3.60;;;;;;;4.70;73.65;99226.08;448875;1248;142895;-68
2023/02/21 21:22:54;;;;;;;15.80;3.80;;;;;;;4.63;73.58;99232.48;451332;1248;141147;-67
2023/02/21 21:33:00;;;;;;;8.70;3.80;;;;;;;4.50;73.76;99235.80;443282;1250;142531;-67
2023/02/21 21:43:06;;;;;;;11.10;2.90;;;;;;;4.34;73.82;99240.70;444616;1249;141523;-68
2023/02/21 21:53:13;;;;;;;11.80;3.80;;;;;;;4.10;74.28;99253.30;449696;1249;202076;-67
2023/02/21 22:03:19;;;;;;;12.10;4.60;;;;;;;3.87;74.82;99261.36;444830;1249;143014;-67
2023/02/21 22:13:28;;;;;;;14.10;4.60;;;;;;;3.59;75.09;99271.67;449930;1249;141946;-67
2023/02/21 22:23:34;;;;;;;13.70;5.20;;;;;;;3.31;75.54;99277.44;443334;1249;141646;-68
2023/02/21 22:33:40;;;;;;;10.20;2.90;;;;;;;3.05;76.34;99288.83;444201;1249;183769;-66
2023/02/21 22:43:50;;;;;;;8.10;3.30;;;;;;;2.83;76.63;99296.02;436699;1251;142386;-68
2023/02/21 22:53:57;;;;;;;9.90;4.10;;;;;;;2.60;77.40;99309.98;448084;1249;141772;-68
2023/02/21 23:04:14;;;;;;;11.70;3.70;;;;;;;2.38;78.11;99318.34;450132;1249;142326;-68
2023/02/21 23:14:21;;;;;;;7.60;3.40;;;;;;;2.24;78.70;99327.95;448782;1249;141635;-68
2023/02/21 23:24:27;;;;;;;18.80;4.20;;;;;;;2.29;79.31;99331.27;451272;1248;140882;-68
2023/02/21 23:34:38;;;;;;;13.30;3.60;;;;;;;2.19;79.22;99341.61;450434;1248;142254;-69
2023/02/21 23:44:49;;;;;;;11.50;3.80;;;;;;;1.97;79.89;99343.55;451171;1249;141339;-68
2023/02/21 23:54:55;;;;;;;12.50;4.00;;;;;;;1.66;80.38;99349.00;450006;1249;141940;-67
